Time;durP1;ratioP1;P1;durP2;ratioP2;P2;SDS_P1;SDS_P2;PMS_P1;PMS_P2;Temp;Humidity;BMP_temperature;BMP_pressure;BME280_temperature;BME280_humidity;BME280_pressure;Samples;Min_cycle;Max_cycle;Signal;HPM_P1;HPM_P2
2023/03/22 00:00:55;;;;;;;3.83;2.33;;;22.20;40.60;;;;;;5047877;28;20399;-53
2023/03/22 00:03:22;;;;;;;3.95;2.28;;;22.10;41.20;;;;;;5053635;28;20029;-52
2023/03/22 00:05:48;;;;;;;2.78;1.90;;;22.20;40.70;;;;;;5051640;28;20039;-52
2023/03/22 00:08:14;;;;;;;3.25;2.05;;;22.10;40.60;;;;;;5052871;28;20020;-50
2023/03/22 00:10:41;;;;;;;2.92;2.00;;;22.10;40.60;;;;;;5049745;28;20437;-48
2023/03/22 00:13:10;;;;;;;3.08;2.00;;;22.10;40.60;;;;;;5052030;28;20087;-53
2023/03/22 00:15:36;;;;;;;3.30;1.92;;;22.10;40.50;;;;;;5052554;28;20041;-50
2023/03/22 00:18:04;;;;;;;3.38;2.10;;;22.10;40.50;;;;;;5051375;28;20048;-53
2023/03/22 00:20:34;;;;;;;2.90;2.10;;;22.10;40.50;;;;;;5049607;28;20033;-53
2023/03/22 00:23:00;;;;;;;3.05;2.00;;;22.10;40.50;;;;;;5053467;28;20506;-49
2023/03/22 00:25:26;;;;;;;3.50;2.10;;;22.10;40.40;;;;;;5052224;28;20041;-52
2023/03/22 00:27:52;;;;;;;3.28;1.95;;;22.00;40.40;;;;;;5052123;28;20448;-51
2023/03/22 00:30:18;;;;;;;3.08;1.60;;;22.00;40.40;;;;;;5041722;28;20087;-53
2023/03/22 00:32:44;;;;;;;2.85;2.00;;;22.00;40.40;;;;;;5044339;28;20068;-55
2023/03/22 00:35:10;;;;;;;3.70;1.90;;;22.00;40.40;;;;;;5052151;28;20029;-53
2023/03/22 00:37:39;;;;;;;3.92;1.70;;;22.00;40.30;;;;;;5053204;28;20049;-54
2023/03/22 00:40:13;;;;;;;2.53;1.70;;;22.00;40.30;;;;;;5046349;28;20144;-52
2023/03/22 00:42:40;;;;;;;2.83;1.48;;;22.00;40.30;;;;;;5053146;28;20071;-52
2023/03/22 00:45:09;;;;;;;3.42;2.03;;;22.00;40.30;;;;;;5052980;28;20029;-53
2023/03/22 00:47:36;;;;;;;2.88;1.70;;;22.00;40.40;;;;;;5050647;28;20021;-52
2023/03/22 00:50:03;;;;;;;4.07;1.70;;;21.90;40.30;;;;;;5050852;28;20028;-52
2023/03/22 00:52:29;;;;;;;3.15;1.70;;;21.90;40.20;;;;;;5050526;28;20034;-52
2023/03/22 00:54:56;;;;;;;2.75;1.40;;;21.90;40.20;;;;;;5051892;28;20084;-51
2023/03/22 00:57:22;;;;;;;2.88;1.80;;;21.90;40.20;;;;;;5048252;28;20037;-50
2023/03/22 00:59:48;;;;;;;3.58;1.67;;;21.90;40.20;;;;;;5051195;28;20404;-50
2023/03/22 01:02:14;;;;;;;2.60;1.70;;;21.90;40.20;;;;;;5050257;28;20036;-51
2023/03/22 01:04:45;;;;;;;2.75;1.50;;;21.90;40.20;;;;;;5051983;28;20032;-53
2023/03/22 01:07:16;;;;;;;2.95;1.67;;;21.80;40.20;;;;;;5049983;28;20033;-50
2023/03/22 01:09:47;;;;;;;3.30;1.65;;;21.90;40.20;;;;;;5050635;28;20045;-50
2023/03/22 01:12:14;;;;;;;3.10;1.50;;;21.90;40.30;;;;;;5049607;28;20039;-52
2023/03/22 01:14:41;;;;;;;2.85;1.70;;;21.90;40.30;;;;;;5045392;28;20086;-53
2023/03/22 01:17:08;;;;;;;3.88;1.60;;;21.80;40.30;;;;;;5047634;28;20135;-53
2023/03/22 01:19:35;;;;;;;3.00;1.67;;;21.90;40.30;;;;;;5051014;28;20499;-56
2023/03/22 01:22:04;;;;;;;4.28;1.20;;;21.80;40.20;;;;;;5072105;28;20356;-54
2023/03/22 01:24:30;;;;;;;3.33;1.67;;;21.80;40.30;;;;;;5048010;28;20449;-53
2023/03/22 01:26:56;;;;;;;2.33;1.60;;;21.80;40.30;;;;;;5050897;28;20100;-49
2023/03/22 01:29:23;;;;;;;3.70;1.38;;;21.80;40.30;;;;;;5051789;28;20025;-52
2023/03/22 01:31:49;;;;;;;2.67;1.30;;;21.80;40.30;;;;;;5046746;28;20029;-51
2023/03/22 01:34:15;;;;;;;3.00;1.48;;;21.80;40.30;;;;;;5050377;28;20021;-51
2023/03/22 01:36:41;;;;;;;2.95;1.70;;;21.80;40.30;;;;;;5051763;28;20135;-51
2023/03/22 01:39:07;;;;;;;3.10;1.52;;;21.80;40.30;;;;;;5076317;28;20087;-51
2023/03/22 01:41:36;;;;;;;2.40;1.38;;;21.80;40.30;;;;;;5048303;28;20067;-52
2023/03/22 01:44:14;;;;;;;2.30;1.30;;;21.80;40.30;;;;;;5050051;28;20036;-54
2023/03/22 01:46:42;;;;;;;3.47;1.65;;;21.80;41.00;;;;;;5048195;28;20072;-48
2023/03/22 01:49:18;;;;;;;2.65;1.33;;;21.70;40.30;;;;;;5051015;28;20454;-51
2023/03/22 01:51:47;;;;;;;2.50;1.40;;;21.70;40.30;;;;;;5046662;28;20028;-49
2023/03/22 01:54:52;;;;;;;2.03;1.30;;;21.70;40.30;;;;;;5049454;28;20029;-48
2023/03/22 01:57:38;;;;;;;2.35;1.20;;;21.70;40.30;;;;;;5048418;28;20099;-50
2023/03/22 02:00:14;;;;;;;5.00;1.33;;;21.70;40.30;;;;;;5050104;28;20124;-52
2023/03/22 02:02:54;;;;;;;3.83;1.60;;;21.70;40.40;;;;;;5048435;28;20032;-53
2023/03/22 02:05:27;;;;;;;3.42;1.50;;;21.70;40.40;;;;;;5049855;28;20025;-53
2023/03/22 02:07:56;;;;;;;3.03;1.30;;;21.60;40.40;;;;;;5049818;28;20043;-55
2023/03/22 02:10:26;;;;;;;2.53;1.60;;;21.60;40.40;;;;;;5049920;28;20111;-51
2023/03/22 02:13:26;;;;;;;3.50;1.50;;;21.60;40.40;;;;;;5049535;28;20033;-54
2023/03/22 02:16:20;;;;;;;1.92;1.25;;;21.60;40.50;;;;;;5073613;28;20097;-49
2023/03/22 02:19:29;;;;;;;2.55;1.38;;;21.60;40.60;;;;;;5046586;28;20016;-53
2023/03/22 02:22:15;;;;;;;3.42;1.70;;;21.60;40.60;;;;;;5067580;28;20044;-54
2023/03/22 02:24:59;;;;;;;;;;;21.60;40.60;;;;;;5049393;28;20040;-49
2023/03/22 02:27:34;;;;;;;2.83;1.52;;;21.60;40.70;;;;;;5047789;28;19917;-53
2023/03/22 02:30:20;;;;;;;1.98;1.25;;;21.60;40.70;;;;;;5049393;28;20037;-54
2023/03/22 02:33:03;;;;;;;2.88;1.40;;;21.50;40.70;;;;;;5048744;28;20148;-51
2023/03/22 02:36:15;;;;;;;3.65;1.38;;;21.50;40.80;;;;;;5047524;28;20360;-51
2023/03/22 02:38:46;;;;;;;6.07;2.47;;;21.50;40.90;;;;;;5047130;28;20070;-48
2023/03/22 02:41:41;;;;;;;3.72;1.70;;;21.50;41.00;;;;;;5049605;28;20025;-50
2023/03/22 02:44:22;;;;;;;2.55;1.70;;;21.50;41.00;;;;;;5043231;28;20067;-52
2023/03/22 02:46:58;;;;;;;3.50;1.80;;;21.50;41.10;;;;;;5045961;28;20029;-52
2023/03/22 02:49:39;;;;;;;3.05;1.50;;;21.50;41.10;;;;;;5048984;28;20029;-50
2023/03/22 02:52:06;;;;;;;3.08;1.65;;;21.50;41.20;;;;;;5072264;28;20356;-50
2023/03/22 02:54:57;;;;;;;2.35;1.48;;;21.50;41.30;;;;;;5052662;28;20032;-53
2023/03/22 02:57:32;;;;;;;2.75;1.48;;;21.50;41.30;;;;;;5046677;28;20049;-50
2023/03/22 03:00:00;;;;;;;2.65;1.52;;;21.50;41.40;;;;;;5045155;28;20491;-52
2023/03/22 03:02:29;;;;;;;3.05;1.60;;;21.50;41.40;;;;;;5048255;28;20025;-46
2023/03/22 03:04:57;;;;;;;2.65;1.60;;;21.50;41.50;;;;;;5050048;28;20419;-53
2023/03/22 03:07:27;;;;;;;2.35;1.50;;;21.50;41.50;;;;;;5047812;28;20036;-51
2023/03/22 03:09:53;;;;;;;2.90;1.77;;;21.50;41.60;;;;;;5048301;28;20048;-48
2023/03/22 03:12:25;;;;;;;4.55;1.70;;;21.50;41.60;;;;;;5045754;28;20021;-53
2023/03/22 03:14:53;;;;;;;2.28;1.30;;;21.50;41.70;;;;;;5048433;28;20520;-53
2023/03/22 03:17:39;;;;;;;3.03;1.45;;;21.40;42.30;;;;;;5046307;28;20052;-48
2023/03/22 03:20:59;;;;;;;3.00;1.48;;;21.40;41.70;;;;;;5050594;28;20040;-52
2023/03/22 03:23:45;;;;;;;3.35;1.50;;;21.40;41.70;;;;;;5016769;28;20099;-49
2023/03/22 03:26:22;;;;;;;2.45;1.60;;;21.40;41.70;;;;;;5050293;28;20036;-51
2023/03/22 03:29:00;;;;;;;3.53;1.50;;;21.40;41.80;;;;;;5048224;28;20040;-49
2023/03/22 03:31:34;;;;;;;2.08;1.40;;;21.40;41.80;;;;;;5049709;28;20029;-48
2023/03/22 03:34:14;;;;;;;;;;;21.40;41.80;;;;;;5046805;28;20079;-52
2023/03/22 03:36:49;;;;;;;2.47;1.42;;;21.40;41.90;;;;;;5033618;28;19920;-49
2023/03/22 03:39:17;;;;;;;2.67;1.27;;;21.40;41.90;;;;;;5043962;28;20060;-51
2023/03/22 03:41:46;;;;;;;1.83;1.30;;;21.40;41.90;;;;;;5046255;28;20029;-49
2023/03/22 03:44:14;;;;;;;2.45;1.23;;;21.40;42.00;;;;;;5045935;28;20025;-48
2023/03/22 03:46:41;;;;;;;2.85;1.55;;;21.40;42.00;;;;;;5050182;28;20112;-50
2023/03/22 03:49:08;;;;;;;2.30;1.40;;;21.40;42.00;;;;;;5046281;28;20342;-50
2023/03/22 03:51:51;;;;;;;1.65;1.30;;;21.40;42.00;;;;;;5043374;28;20029;-51
2023/03/22 03:54:18;;;;;;;2.70;1.10;;;21.40;42.00;;;;;;5048508;28;20025;-48
2023/03/22 03:56:46;;;;;;;2.13;1.25;;;21.30;42.00;;;;;;5048432;28;20429;-51
2023/03/22 03:59:16;;;;;;;3.13;1.42;;;21.40;42.00;;;;;;5046279;28;20108;-50
2023/03/22 04:01:51;;;;;;;1.88;1.23;;;21.30;42.00;;;;;;5048355;28;20376;-50
2023/03/22 04:04:25;;;;;;;2.97;1.55;;;21.30;42.00;;;;;;5046631;28;20108;-52
2023/03/22 04:06:59;;;;;;;1.98;1.20;;;21.30;42.00;;;;;;5047576;28;20021;-48
2023/03/22 04:09:30;;;;;;;4.13;1.40;;;21.30;42.00;;;;;;5049558;28;20033;-52
2023/03/22 04:12:04;;;;;;;3.22;1.30;;;21.30;42.00;;;;;;5046861;28;20457;-51
2023/03/22 04:14:31;;;;;;;2.35;1.27;;;21.30;42.00;;;;;;5044889;28;20029;-52
2023/03/22 04:17:03;;;;;;;3.13;1.15;;;21.30;42.00;;;;;;5047535;28;20053;-49
2023/03/22 04:19:30;;;;;;;1.58;1.10;;;21.30;42.00;;;;;;5045609;28;20032;-48
2023/03/22 04:21:56;;;;;;;2.53;1.30;;;21.30;42.10;;;;;;5030018;28;20041;-52
2023/03/22 04:24:22;;;;;;;1.45;1.05;;;21.30;42.00;;;;;;5045619;28;20111;-53
2023/03/22 04:26:54;;;;;;;2.10;1.08;;;21.30;42.10;;;;;;5047908;28;20035;-53
2023/03/22 04:29:23;;;;;;;2.47;1.10;;;21.30;42.10;;;;;;5043716;28;20029;-51
2023/03/22 04:31:54;;;;;;;1.75;1.10;;;21.30;42.10;;;;;;5046159;28;20424;-52
2023/03/22 04:34:25;;;;;;;2.88;1.20;;;21.30;42.10;;;;;;5047722;28;20021;-52
2023/03/22 04:36:56;;;;;;;1.70;1.00;;;21.30;42.10;;;;;;5047068;28;20464;-49
2023/03/22 04:39:29;;;;;;;1.92;1.15;;;21.20;42.00;;;;;;5048673;28;20108;-50
2023/03/22 04:42:16;;;;;;;1.25;0.90;;;21.30;42.00;;;;;;5047883;28;20120;-53
2023/03/22 04:44:42;;;;;;;2.25;1.02;;;21.30;42.10;;;;;;5047308;28;20448;-53
2023/03/22 04:47:07;;;;;;;2.72;1.00;;;21.20;42.00;;;;;;5048871;28;20035;-53
2023/03/22 04:49:34;;;;;;;1.77;1.08;;;21.20;42.00;;;;;;5047101;28;20039;-52
2023/03/22 04:52:00;;;;;;;2.63;0.90;;;21.20;42.00;;;;;;5050372;28;20033;-49
2023/03/22 04:54:31;;;;;;;1.70;0.88;;;21.20;42.00;;;;;;5051268;28;20444;-51
2023/03/22 04:56:58;;;;;;;2.55;1.10;;;21.20;42.00;;;;;;5050957;28;20048;-49
2023/03/22 04:59:26;;;;;;;1.25;0.80;;;21.20;42.00;;;;;;5047655;28;20029;-54
2023/03/22 05:01:52;;;;;;;2.90;0.98;;;21.20;42.00;;;;;;5050405;28;20025;-50
2023/03/22 05:04:23;;;;;;;2.80;1.10;;;21.20;42.00;;;;;;5052102;28;20116;-52
2023/03/22 05:06:56;;;;;;;3.17;0.85;;;21.20;42.00;;;;;;5045050;28;20154;-54
2023/03/22 05:09:28;;;;;;;2.60;1.08;;;21.20;42.00;;;;;;5049200;28;20040;-51
2023/03/22 05:11:55;;;;;;;1.45;0.95;;;21.20;42.10;;;;;;5050340;28;20647;-49
2023/03/22 05:14:34;;;;;;;1.45;0.90;;;21.20;42.00;;;;;;5050735;28;20064;-52
2023/03/22 05:17:03;;;;;;;1.95;0.88;;;21.20;42.00;;;;;;5075341;28;20071;-52
2023/03/22 05:19:33;;;;;;;1.52;0.90;;;21.20;42.00;;;;;;5048307;28;20032;-53
2023/03/22 05:22:00;;;;;;;2.05;0.90;;;21.20;42.00;;;;;;5049034;28;20124;-53
2023/03/22 05:24:39;;;;;;;2.20;0.90;;;21.20;42.00;;;;;;5050646;28;20033;-53
2023/03/22 05:27:09;;;;;;;1.58;0.90;;;21.10;41.90;;;;;;5050025;28;20437;-51
2023/03/22 05:29:37;;;;;;;1.88;0.85;;;21.10;42.60;;;;;;5049894;28;20033;-51
2023/03/22 05:32:13;;;;;;;1.42;0.80;;;21.10;42.00;;;;;;5049252;28;20066;-51
2023/03/22 05:34:41;;;;;;;1.73;0.80;;;21.10;42.00;;;;;;5050977;28;20029;-52
2023/03/22 05:37:33;;;;;;;1.67;0.67;;;21.20;42.10;;;;;;5047089;28;20480;-51
2023/03/22 05:40:01;;;;;;;2.80;1.20;;;21.10;42.00;;;;;;5032716;28;20036;-49
2023/03/22 05:42:36;;;;;;;2.35;0.98;;;21.10;42.00;;;;;;5050253;28;20484;-51
2023/03/22 05:45:09;;;;;;;1.85;0.90;;;21.10;42.00;;;;;;5050175;28;20071;-48
2023/03/22 05:47:38;;;;;;;1.75;0.90;;;21.10;42.00;;;;;;5051216;28;20116;-50
2023/03/22 05:50:15;;;;;;;1.05;0.68;;;21.10;42.00;;;;;;5050361;28;20060;-52
2023/03/22 05:52:41;;;;;;;1.52;0.70;;;21.10;42.00;;;;;;5045212;28;20044;-50
2023/03/22 05:55:22;;;;;;;2.15;0.88;;;21.10;42.00;;;;;;5048830;28;20490;-50
2023/03/22 05:57:53;;;;;;;2.10;0.90;;;21.10;42.00;;;;;;5047388;28;20046;-51
2023/03/22 06:00:22;;;;;;;2.10;0.90;;;21.10;42.00;;;;;;5047254;28;20467;-53
2023/03/22 06:03:27;;;;;;;0.98;0.50;;;21.10;42.00;;;;;;5048992;28;20044;-52
2023/03/22 06:06:05;;;;;;;1.48;0.82;;;21.10;42.00;;;;;;5049448;28;20039;-52
2023/03/22 06:08:40;;;;;;;1.35;0.70;;;21.00;41.90;;;;;;5050017;28;20037;-53
2023/03/22 06:11:07;;;;;;;1.83;0.90;;;21.10;42.00;;;;;;5050438;28;20024;-53
2023/03/22 06:13:34;;;;;;;2.67;0.80;;;21.00;41.90;;;;;;5050425;28;20111;-52
2023/03/22 06:16:02;;;;;;;2.00;0.70;;;21.00;41.90;;;;;;5048225;28;20044;-56
2023/03/22 06:18:29;;;;;;;1.90;0.70;;;21.00;41.90;;;;;;5050822;28;20424;-47
2023/03/22 06:21:02;;;;;;;1.75;0.68;;;21.00;42.00;;;;;;5048997;28;20483;-51
2023/03/22 06:23:28;;;;;;;2.33;0.90;;;21.00;42.00;;;;;;5049110;28;20025;-51
2023/03/22 06:25:54;;;;;;;2.75;1.00;;;21.00;42.00;;;;;;5047514;28;20032;-50
2023/03/22 06:28:20;;;;;;;1.92;0.70;;;21.00;42.00;;;;;;5049777;28;20032;-53
2023/03/22 06:30:49;;;;;;;1.52;0.80;;;21.00;42.00;;;;;;5046169;28;20036;-50
2023/03/22 06:33:27;;;;;;;1.75;0.70;;;21.00;41.90;;;;;;5049670;28;20321;-49
2023/03/22 06:36:02;;;;;;;;;;;21.00;41.90;;;;;;5048813;28;20040;-53
2023/03/22 06:38:37;;;;;;;2.33;0.90;;;21.00;41.90;;;;;;5046719;28;19913;-52
2023/03/22 06:41:03;;;;;;;1.88;0.90;;;21.00;41.90;;;;;;5072609;28;21383;-53
2023/03/22 06:43:29;;;;;;;2.22;0.82;;;21.00;41.80;;;;;;5047909;28;20456;-48
2023/03/22 06:46:05;;;;;;;1.80;0.60;;;21.00;41.80;;;;;;5046761;28;20029;-51
2023/03/22 06:48:38;;;;;;;1.08;0.70;;;21.00;41.80;;;;;;5046372;28;20076;-50
2023/03/22 06:51:07;;;;;;;1.67;0.73;;;21.00;41.80;;;;;;5042269;28;20095;-53
2023/03/22 06:53:35;;;;;;;1.38;0.60;;;21.00;41.80;;;;;;5036660;28;20025;-54
2023/03/22 06:56:02;;;;;;;2.00;0.60;;;21.00;41.80;;;;;;5046605;28;20029;-50
2023/03/22 06:58:29;;;;;;;1.25;0.60;;;21.00;41.70;;;;;;5047035;28;20412;-49
2023/03/22 07:00:55;;;;;;;2.15;0.88;;;21.00;41.70;;;;;;5048687;28;20061;-53
2023/03/22 07:03:23;;;;;;;1.67;0.85;;;21.00;41.70;;;;;;5049076;28;20392;-53
2023/03/22 07:06:02;;;;;;;1.33;0.70;;;21.00;41.70;;;;;;5049145;28;20029;-51
2023/03/22 07:08:33;;;;;;;1.45;0.80;;;21.00;41.70;;;;;;5048702;28;20456;-52
2023/03/22 07:10:59;;;;;;;1.45;0.68;;;21.00;41.70;;;;;;5050391;28;20098;-51
2023/03/22 07:13:25;;;;;;;1.85;0.82;;;21.00;41.70;;;;;;5045426;28;20025;-52
2023/03/22 07:16:00;;;;;;;2.00;0.75;;;21.00;41.70;;;;;;5046938;28;20055;-54
2023/03/22 07:18:35;;;;;;;2.65;0.80;;;21.00;41.70;;;;;;5042658;28;20482;-50
2023/03/22 07:21:01;;;;;;;2.05;0.70;;;21.00;41.70;;;;;;5049325;28;20037;-53
2023/03/22 07:23:27;;;;;;;1.08;0.50;;;21.00;41.70;;;;;;5046591;28;20079;-53
2023/03/22 07:25:59;;;;;;;2.53;0.80;;;21.00;41.70;;;;;;5050199;28;20040;-50
2023/03/22 07:28:28;;;;;;;2.20;0.80;;;21.00;41.70;;;;;;5035429;28;20451;-49
2023/03/22 07:31:01;;;;;;;2.60;0.80;;;21.00;41.70;;;;;;5051076;28;20472;-52
2023/03/22 07:33:34;;;;;;;2.85;0.90;;;21.00;41.70;;;;;;5049944;28;20115;-49
2023/03/22 07:36:01;;;;;;;4.32;0.80;;;21.00;41.70;;;;;;5051426;28;20265;-48
2023/03/22 07:38:28;;;;;;;3.20;1.10;;;21.00;41.70;;;;;;5050259;28;20040;-51
2023/03/22 07:40:54;;;;;;;2.63;1.10;;;21.00;41.70;;;;;;5060743;28;20016;-52
2023/03/22 07:43:23;;;;;;;3.20;1.48;;;21.00;41.70;;;;;;5055460;28;20069;-50
2023/03/22 07:45:55;;;;;;;3.03;1.35;;;21.00;41.70;;;;;;5051216;28;20017;-48
2023/03/22 07:48:44;;;;;;;5.45;1.75;;;21.00;41.70;;;;;;5050643;28;20044;-52
2023/03/22 07:51:45;;;;;;;5.28;1.95;;;21.00;41.70;;;;;;5040374;28;20465;-50
2023/03/22 07:54:12;;;;;;;5.95;2.20;;;21.00;41.70;;;;;;5051327;28;20037;-52
2023/03/22 07:56:38;;;;;;;4.03;2.10;;;21.00;41.70;;;;;;5051531;28;20053;-51
2023/03/22 07:59:05;;;;;;;6.78;3.00;;;21.00;41.80;;;;;;5051418;28;20040;-51
2023/03/22 08:01:30;;;;;;;5.53;3.00;;;21.00;41.70;;;;;;5051582;28;20084;-51
2023/03/22 08:04:05;;;;;;;7.15;3.45;;;21.00;41.70;;;;;;5051689;28;20125;-51
2023/03/22 08:06:42;;;;;;;6.57;2.72;;;21.00;41.70;;;;;;5049874;28;20021;-52
2023/03/22 08:09:09;;;;;;;8.02;3.25;;;21.00;41.70;;;;;;5040044;28;20064;-49
2023/03/22 08:11:35;;;;;;;4.68;2.80;;;21.00;41.70;;;;;;5044419;28;20021;-51
2023/03/22 08:14:01;;;;;;;5.88;3.28;;;21.10;41.80;;;;;;5041853;28;20037;-52
2023/03/22 08:16:42;;;;;;;7.13;2.88;;;21.00;41.70;;;;;;5050497;28;20056;-50
2023/03/22 08:19:10;;;;;;;6.68;2.90;;;21.10;41.70;;;;;;5051629;28;20044;-51
2023/03/22 08:21:37;;;;;;;6.85;3.33;;;21.10;41.70;;;;;;5052975;28;20028;-56
2023/03/22 08:24:06;;;;;;;7.00;3.75;;;21.10;41.70;;;;;;5054966;28;20078;-55
2023/03/22 08:26:38;;;;;;;5.90;3.67;;;21.10;41.70;;;;;;5054261;28;20040;-56
2023/03/22 08:29:12;;;;;;;6.95;3.65;;;21.20;41.90;;;;;;5053152;28;20025;-55
2023/03/22 08:31:38;;;;;;;6.97;3.13;;;21.20;42.00;;;;;;5055177;28;20128;-53
2023/03/22 08:34:04;;;;;;;6.55;3.45;;;21.20;41.90;;;;;;5056559;28;20060;-51
2023/03/22 08:36:30;;;;;;;5.65;3.85;;;21.20;41.80;;;;;;5050536;28;20463;-54
2023/03/22 08:39:00;;;;;;;5.30;3.10;;;21.30;41.80;;;;;;5044250;28;20029;-56
2023/03/22 08:41:39;;;;;;;7.38;4.20;;;21.30;41.70;;;;;;5053129;28;20492;-56
2023/03/22 08:44:05;;;;;;;5.60;3.70;;;21.30;41.60;;;;;;5070341;28;20033;-52
2023/03/22 08:46:33;;;;;;;6.32;3.75;;;21.40;41.60;;;;;;5045687;28;20352;-55
2023/03/22 08:49:01;;;;;;;5.60;3.80;;;21.40;41.50;;;;;;5051549;28;20036;-54
2023/03/22 08:51:33;;;;;;;6.60;4.23;;;21.40;41.40;;;;;;5051567;28;20025;-52
2023/03/22 08:54:09;;;;;;;5.78;3.78;;;21.50;41.40;;;;;;5054649;28;20623;-59
2023/03/22 08:56:57;;;;;;;7.13;4.55;;;21.50;41.30;;;;;;5040223;28;20036;-52
2023/03/22 08:59:45;;;;;;;7.18;4.13;;;21.50;41.20;;;;;;5050523;28;20428;-51
2023/03/22 09:02:32;;;;;;;7.13;4.82;;;21.50;41.20;;;;;;5045368;28;20029;-52
2023/03/22 09:04:58;;;;;;;7.60;4.93;;;21.60;41.10;;;;;;5044519;28;20029;-53
2023/03/22 09:07:26;;;;;;;8.55;5.30;;;21.60;41.00;;;;;;5049257;28;20025;-53
2023/03/22 09:10:04;;;;;;;6.90;4.85;;;21.60;41.00;;;;;;5055438;28;20333;-54
2023/03/22 09:12:30;;;;;;;7.60;5.68;;;21.70;41.00;;;;;;5054092;28;20021;-52
2023/03/22 09:14:56;;;;;;;7.60;5.65;;;21.70;41.00;;;;;;5054640;28;20024;-54
2023/03/22 09:17:23;;;;;;;8.38;6.10;;;21.70;40.90;;;;;;5055969;28;20052;-52
2023/03/22 09:19:49;;;;;;;10.43;6.13;;;21.70;40.80;;;;;;5054704;28;20021;-50
2023/03/22 09:22:15;;;;;;;10.38;7.20;;;21.80;40.80;;;;;;5054252;28;20025;-53
2023/03/22 09:24:46;;;;;;;9.90;6.88;;;21.80;40.70;;;;;;5054369;28;20056;-51
2023/03/22 09:27:12;;;;;;;8.00;6.47;;;21.80;40.60;;;;;;5053492;28;20048;-54
2023/03/22 09:29:38;;;;;;;10.65;7.60;;;21.80;40.50;;;;;;5055513;28;20029;-50
2023/03/22 09:32:08;;;;;;;9.35;7.03;;;21.80;40.40;;;;;;5054008;28;20044;-51
2023/03/22 09:34:36;;;;;;;8.90;6.53;;;21.90;40.40;;;;;;5055337;28;20025;-53
2023/03/22 09:37:03;;;;;;;10.13;7.55;;;21.90;40.30;;;;;;5054237;28;20076;-55
2023/03/22 09:39:40;;;;;;;9.57;6.90;;;21.90;40.20;;;;;;5053976;28;20025;-53
2023/03/22 09:42:27;;;;;;;11.10;8.23;;;21.90;40.20;;;;;;5053065;28;20040;-55
2023/03/22 09:44:55;;;;;;;10.32;7.70;;;21.90;40.10;;;;;;5053203;28;20020;-53
2023/03/22 09:47:42;;;;;;;10.65;8.18;;;21.90;40.00;;;;;;5051892;28;20029;-53
2023/03/22 09:50:19;;;;;;;11.40;8.55;;;21.90;39.90;;;;;;5055124;28;20086;-51
2023/03/22 09:52:45;;;;;;;10.50;8.55;;;21.90;39.90;;;;;;5054849;28;20094;-53
2023/03/22 09:55:40;;;;;;;11.52;8.52;;;22.00;39.90;;;;;;5053736;28;20056;-50
2023/03/22 09:58:34;;;;;;;13.53;9.37;;;21.90;39.90;;;;;;5054493;28;20056;-54
2023/03/22 10:01:40;;;;;;;13.13;9.40;;;21.90;39.80;;;;;;5053323;28;20033;-56
2023/03/22 10:04:12;;;;;;;12.13;9.98;;;21.90;39.80;;;;;;5024266;28;20041;-51
2023/03/22 10:06:45;;;;;;;11.88;9.75;;;21.90;39.80;;;;;;5053114;28;20031;-51
2023/03/22 10:09:26;;;;;;;11.57;9.88;;;21.90;39.80;;;;;;5046536;28;20033;-54
2023/03/22 10:12:15;;;;;;;12.93;10.90;;;21.90;39.80;;;;;;5047514;28;20355;-53
2023/03/22 10:15:09;;;;;;;12.07;10.77;;;21.90;39.90;;;;;;5047742;28;20028;-51
2023/03/22 10:17:38;;;;;;;14.40;10.52;;;21.90;39.90;;;;;;5049420;28;20065;-54
2023/03/22 10:20:29;;;;;;;14.95;11.18;;;21.90;39.90;;;;;;5045684;28;20060;-54
2023/03/22 10:22:57;;;;;;;12.50;10.40;;;21.90;39.90;;;;;;5039218;28;20022;-52
2023/03/22 10:25:32;;;;;;;15.57;10.93;;;21.90;39.80;;;;;;5045782;28;20349;-48
2023/03/22 10:27:58;;;;;;;12.23;10.20;;;21.90;39.90;;;;;;5049242;28;20043;-53
2023/03/22 10:30:29;;;;;;;16.17;11.52;;;21.90;39.90;;;;;;5047618;28;20036;-54
2023/03/22 10:32:59;;;;;;;14.43;12.00;;;21.90;39.90;;;;;;5037109;28;20353;-49
2023/03/22 10:35:25;;;;;;;14.93;11.45;;;21.90;40.00;;;;;;5038808;28;20036;-53
2023/03/22 10:37:53;;;;;;;13.55;11.35;;;21.90;40.00;;;;;;5045419;28;20043;-52
2023/03/22 10:40:25;;;;;;;15.80;11.60;;;21.90;40.00;;;;;;5047763;28;20424;-53
2023/03/22 10:43:06;;;;;;;15.20;11.38;;;21.90;40.10;;;;;;5046081;28;20040;-50
2023/03/22 10:45:34;;;;;;;16.90;12.55;;;21.90;40.20;;;;;;5037414;28;20319;-52
2023/03/22 10:48:25;;;;;;;16.20;12.52;;;21.80;40.20;;;;;;5036536;28;20025;-54
2023/03/22 10:50:52;;;;;;;16.70;11.73;;;21.90;40.30;;;;;;5036029;28;20057;-54
2023/03/22 10:53:37;;;;;;;14.90;11.38;;;21.90;40.30;;;;;;5052257;28;20037;-49
2023/03/22 10:56:04;;;;;;;14.05;11.00;;;21.80;40.30;;;;;;5053827;28;20052;-52
2023/03/22 10:58:32;;;;;;;14.13;11.75;;;21.90;40.40;;;;;;5052082;28;20368;-51
2023/03/22 11:01:07;;;;;;;13.02;10.48;;;21.90;40.40;;;;;;5051726;28;20025;-51
2023/03/22 11:03:50;;;;;;;14.18;10.60;;;21.90;40.40;;;;;;5055426;28;20035;-54
2023/03/22 11:06:37;;;;;;;13.38;9.90;;;21.90;40.50;;;;;;5071519;28;20428;-46
2023/03/22 11:09:14;;;;;;;12.95;10.43;;;21.90;40.50;;;;;;5070711;28;20515;-51
2023/03/22 11:11:58;;;;;;;13.45;10.30;;;21.90;40.50;;;;;;5071714;28;20035;-50
2023/03/22 11:14:23;;;;;;;12.75;9.70;;;21.90;40.60;;;;;;5056274;28;20036;-53
2023/03/22 11:16:59;;;;;;;12.10;9.90;;;21.90;40.60;;;;;;5051901;28;20460;-51
2023/03/22 11:19:31;;;;;;;14.00;10.30;;;21.90;40.60;;;;;;5051938;28;20032;-52
2023/03/22 11:21:58;;;;;;;11.57;9.95;;;21.90;40.60;;;;;;5051682;28;20040;-55
2023/03/22 11:24:26;;;;;;;11.38;9.88;;;21.90;40.60;;;;;;5055605;28;20029;-50
2023/03/22 11:27:05;;;;;;;13.40;9.60;;;21.90;40.70;;;;;;5072159;28;20060;-53
2023/03/22 11:29:49;;;;;;;12.15;9.18;;;22.00;40.70;;;;;;5052051;28;20025;-53
2023/03/22 11:32:34;;;;;;;11.60;8.65;;;21.90;40.70;;;;;;5052136;28;20033;-52
2023/03/22 11:35:21;;;;;;;12.95;9.70;;;22.00;40.80;;;;;;5052722;28;20040;-54
2023/03/22 11:37:49;;;;;;;13.68;10.63;;;22.00;40.80;;;;;;5051971;28;20452;-52
2023/03/22 11:40:20;;;;;;;14.07;10.35;;;22.00;40.90;;;;;;5055151;28;20094;-54
2023/03/22 11:42:50;;;;;;;13.18;10.63;;;22.00;40.90;;;;;;5054439;28;20100;-54
2023/03/22 11:45:28;;;;;;;11.80;9.88;;;22.00;40.90;;;;;;5053541;28;20029;-50
2023/03/22 11:48:00;;;;;;;11.82;9.30;;;22.00;40.90;;;;;;5053066;28;20028;-51
2023/03/22 11:50:29;;;;;;;13.05;10.20;;;22.00;40.90;;;;;;5052861;28;20079;-50
2023/03/22 11:52:56;;;;;;;11.35;9.43;;;22.10;41.00;;;;;;5052330;28;20033;-51
2023/03/22 11:55:23;;;;;;;12.23;10.18;;;22.10;41.00;;;;;;5052112;28;20064;-49
2023/03/22 11:57:49;;;;;;;11.95;10.00;;;22.10;41.00;;;;;;5054504;28;20107;-51
2023/03/22 12:00:22;;;;;;;13.52;10.05;;;22.10;41.00;;;;;;5051798;28;20071;-54
2023/03/22 12:03:04;;;;;;;13.13;10.88;;;22.10;41.00;;;;;;5052904;28;20021;-52
2023/03/22 12:05:33;;;;;;;11.95;9.93;;;22.10;41.00;;;;;;5051405;28;20036;-55
2023/03/22 12:08:05;;;;;;;11.82;9.40;;;22.10;41.00;;;;;;5052726;28;20033;-51
2023/03/22 12:10:40;;;;;;;12.77;9.77;;;22.10;41.00;;;;;;5052956;28;20056;-53
2023/03/22 12:13:22;;;;;;;12.13;10.43;;;22.10;41.00;;;;;;5051282;28;20029;-55
2023/03/22 12:15:51;;;;;;;12.45;9.95;;;22.10;40.90;;;;;;5052170;28;20760;-52
2023/03/22 12:18:46;;;;;;;11.77;10.40;;;22.10;40.90;;;;;;5052027;28;20098;-53
2023/03/22 12:21:11;;;;;;;12.25;10.20;;;22.20;40.90;;;;;;5052177;28;20478;-52
2023/03/22 12:23:38;;;;;;;12.25;10.13;;;22.20;40.90;;;;;;5052456;28;20033;-55
2023/03/22 12:26:25;;;;;;;11.60;9.88;;;22.20;40.90;;;;;;5052094;28;20471;-51
2023/03/22 12:29:11;;;;;;;10.93;9.68;;;22.20;40.90;;;;;;5053191;28;20025;-51
2023/03/22 12:31:50;;;;;;;12.38;10.20;;;22.20;40.90;;;;;;5073577;28;20056;-51
2023/03/22 12:34:19;;;;;;;12.90;10.07;;;22.20;40.90;;;;;;5070931;28;20033;-54
2023/03/22 12:36:52;;;;;;;11.57;10.05;;;22.20;40.90;;;;;;5054499;28;20033;-50
2023/03/22 12:39:41;;;;;;;11.70;10.18;;;22.20;40.80;;;;;;5052442;28;20049;-49
2023/03/22 12:42:24;;;;;;;11.13;9.63;;;22.20;40.80;;;;;;5052061;28;20104;-50
2023/03/22 12:44:57;;;;;;;13.77;11.20;;;22.20;40.80;;;;;;5050516;28;20111;-52
2023/03/22 12:47:33;;;;;;;11.80;10.57;;;22.20;40.80;;;;;;5052770;28;20036;-52
2023/03/22 12:50:10;;;;;;;12.32;10.68;;;22.20;40.80;;;;;;5058735;28;20033;-53
2023/03/22 12:52:53;;;;;;;13.95;11.27;;;22.20;40.80;;;;;;5073128;28;20198;-53
2023/03/22 12:55:27;;;;;;;13.18;11.35;;;22.20;40.80;;;;;;5057367;28;20068;-50
2023/03/22 12:57:53;;;;;;;;;;;22.20;40.80;;;;;;5055905;28;20029;-49
2023/03/22 13:00:26;;;;;;;13.77;11.23;;;22.20;40.80;;;;;;5055068;28;19912;-50
2023/03/22 13:03:05;;;;;;;13.48;12.07;;;22.20;40.80;;;;;;5053798;28;20033;-54
2023/03/22 13:05:33;;;;;;;12.05;10.75;;;22.20;40.80;;;;;;5054409;28;20036;-51
2023/03/22 13:08:02;;;;;;;12.38;11.05;;;22.20;40.80;;;;;;5055180;28;20349;-51
2023/03/22 13:10:28;;;;;;;12.80;11.20;;;22.20;40.80;;;;;;5062520;28;20033;-54
2023/03/22 13:13:32;;;;;;;12.40;10.77;;;22.20;40.80;;;;;;5066534;28;20025;-52